Time;durP1;ratioP1;P1;durP2;ratioP2;P2;SDS_P1;SDS_P2;PMS_P1;PMS_P2;Temp;Humidity;BMP_temperature;BMP_pressure;BME280_temperature;BME280_humidity;BME280_pressure;Samples;Min_cycle;Max_cycle;Signal;HPM_P1;HPM_P2
2021/04/24 00:01:22;;;;;;;11.47;8.30;;;11.80;52.00;;;;;;5096561;28;20964;-69
2021/04/24 00:03:49;;;;;;;14.63;8.77;;;11.80;52.00;;;;;;5096825;28;20500;-69
2021/04/24 00:06:15;;;;;;;9.97;7.83;;;11.70;51.90;;;;;;5096748;28;20443;-69
2021/04/24 00:08:42;;;;;;;8.60;7.10;;;11.70;52.10;;;;;;5096558;28;20948;-69
2021/04/24 00:11:08;;;;;;;10.90;7.60;;;11.70;52.10;;;;;;5096815;28;20443;-69
2021/04/24 00:13:34;;;;;;;9.43;7.30;;;11.60;52.20;;;;;;5096273;28;21010;-69
2021/04/24 00:16:01;;;;;;;11.57;8.43;;;11.60;52.20;;;;;;5096568;28;20443;-69
2021/04/24 00:18:27;;;;;;;10.40;7.17;;;11.50;52.20;;;;;;5096141;28;20471;-69
2021/04/24 00:20:53;;;;;;;10.30;8.33;;;11.50;52.20;;;;;;5096464;28;20444;-69
2021/04/24 00:23:19;;;;;;;8.73;7.83;;;11.50;52.30;;;;;;5096387;28;20463;-69
2021/04/24 00:25:47;;;;;;;10.40;7.50;;;11.50;52.30;;;;;;5096527;28;20493;-69
2021/04/24 00:28:13;;;;;;;12.57;7.93;;;11.40;52.40;;;;;;5096008;28;21014;-69
2021/04/24 00:30:40;;;;;;;12.30;7.63;;;11.40;52.50;;;;;;5096376;28;20448;-69
2021/04/24 00:33:07;;;;;;;14.53;7.20;;;11.30;52.40;;;;;;5096299;28;20451;-69
2021/04/24 00:35:34;;;;;;;14.43;7.40;;;11.30;52.50;;;;;;5096191;28;20821;-69
2021/04/24 00:38:00;;;;;;;11.33;7.00;;;11.30;52.60;;;;;;5096056;28;20471;-69
2021/04/24 00:40:27;;;;;;;13.87;7.67;;;11.20;52.50;;;;;;5096129;28;20446;-68
2021/04/24 00:42:54;;;;;;;11.23;7.50;;;11.20;52.40;;;;;;5096085;28;20458;-68
2021/04/24 00:45:22;;;;;;;7.60;6.60;;;11.20;52.40;;;;;;5096004;28;20483;-68
2021/04/24 00:47:49;;;;;;;9.50;6.73;;;11.20;52.60;;;;;;5095818;28;20532;-68
2021/04/24 00:50:18;;;;;;;12.27;6.73;;;11.10;52.10;;;;;;5095952;28;20451;-68
2021/04/24 00:52:45;;;;;;;8.70;6.43;;;11.00;51.90;;;;;;5095949;28;20501;-68
2021/04/24 00:55:12;;;;;;;10.03;7.10;;;11.00;52.10;;;;;;5095945;28;20440;-68
2021/04/24 00:57:39;;;;;;;12.00;6.73;;;11.00;52.60;;;;;;5094454;28;21000;-68
2021/04/24 01:00:09;;;;;;;13.57;7.20;;;10.90;52.80;;;;;;5095701;28;20452;-68
2021/04/24 01:02:37;;;;;;;8.50;6.70;;;10.80;52.80;;;;;;5095761;28;20444;-69
2021/04/24 01:05:06;;;;;;;8.63;6.87;;;10.80;52.60;;;;;;5095766;28;20444;-69
2021/04/24 01:07:32;;;;;;;11.00;7.30;;;10.70;52.50;;;;;;5095145;28;20487;-69
2021/04/24 01:09:58;;;;;;;8.87;6.60;;;10.70;52.40;;;;;;5095240;28;21116;-69
2021/04/24 01:12:24;;;;;;;6.90;6.10;;;10.60;52.40;;;;;;5095590;28;20440;-69
2021/04/24 01:14:50;;;;;;;7.63;6.63;;;10.60;52.80;;;;;;5095416;28;20447;-69
2021/04/24 01:17:18;;;;;;;10.97;6.20;;;10.50;53.30;;;;;;5094949;28;21009;-68
2021/04/24 01:19:44;;;;;;;9.70;6.77;;;10.50;53.30;;;;;;5095344;28;20576;-69
2021/04/24 01:22:11;;;;;;;9.90;7.00;;;10.50;53.50;;;;;;5095308;28;20449;-69
2021/04/24 01:24:38;;;;;;;8.50;5.77;;;10.40;53.30;;;;;;5095177;28;20440;-69
2021/04/24 01:27:06;;;;;;;8.37;6.10;;;10.40;53.50;;;;;;5095028;28;20567;-69
2021/04/24 01:29:33;;;;;;;8.03;6.10;;;10.40;53.50;;;;;;5095171;28;20448;-69
2021/04/24 01:32:00;;;;;;;8.63;5.67;;;10.30;53.70;;;;;;5095229;28;20454;-69
2021/04/24 01:34:27;;;;;;;8.57;5.90;;;10.30;53.70;;;;;;5094972;28;20788;-69
2021/04/24 01:36:55;;;;;;;9.60;6.30;;;10.30;53.70;;;;;;5094984;28;20774;-69
2021/04/24 01:39:22;;;;;;;8.33;6.20;;;10.30;53.70;;;;;;5094824;28;20430;-69
2021/04/24 01:41:49;;;;;;;7.67;5.67;;;10.20;54.00;;;;;;5094835;28;20447;-69
2021/04/24 01:44:15;;;;;;;9.23;5.23;;;10.20;54.10;;;;;;5094846;28;20863;-69
2021/04/24 01:46:41;;;;;;;8.13;5.33;;;10.20;54.10;;;;;;5094642;28;20504;-68
2021/04/24 01:49:08;;;;;;;8.20;5.87;;;10.10;54.20;;;;;;5094302;28;20977;-68
2021/04/24 01:51:34;;;;;;;6.43;5.50;;;10.10;54.10;;;;;;5094694;28;20444;-68
2021/04/24 01:54:01;;;;;;;9.47;5.20;;;10.10;54.20;;;;;;5094839;28;20451;-69
2021/04/24 01:56:41;;;;;;;10.97;5.20;;;10.10;54.10;;;;;;5094255;28;20836;-69
2021/04/24 01:59:07;;;;;;;5.90;4.60;;;10.00;54.20;;;;;;5094633;28;20479;-68
2021/04/24 02:01:34;;;;;;;6.10;5.27;;;10.00;54.40;;;;;;5094594;28;20804;-68
2021/04/24 02:04:00;;;;;;;10.30;5.47;;;10.00;54.30;;;;;;5094504;28;20465;-69
2021/04/24 02:06:26;;;;;;;6.57;5.37;;;10.00;54.10;;;;;;5094963;28;20452;-68
2021/04/24 02:08:52;;;;;;;6.70;4.30;;;10.00;54.00;;;;;;5094155;28;20498;-68
2021/04/24 02:11:19;;;;;;;12.03;4.80;;;10.00;54.10;;;;;;5094231;28;20453;-69
2021/04/24 02:13:46;;;;;;;8.93;5.40;;;10.00;54.20;;;;;;5094157;28;20505;-69
2021/04/24 02:16:14;;;;;;;9.07;4.80;;;9.90;55.00;;;;;;5093862;28;20851;-69
2021/04/24 02:18:40;;;;;;;6.60;3.93;;;9.90;55.00;;;;;;5094098;28;20471;-69
2021/04/24 02:21:06;;;;;;;6.80;4.20;;;9.90;55.00;;;;;;5094159;28;20440;-68
2021/04/24 02:23:34;;;;;;;4.33;3.87;;;9.80;54.90;;;;;;5094069;28;20488;-68
2021/04/24 02:26:01;;;;;;;6.30;4.10;;;9.80;54.90;;;;;;5093989;28;20440;-69
2021/04/24 02:28:27;;;;;;;4.83;3.90;;;9.80;55.20;;;;;;5093865;28;20483;-69
2021/04/24 02:30:54;;;;;;;5.63;3.83;;;9.70;55.00;;;;;;5093865;28;20444;-69
2021/04/24 02:33:21;;;;;;;7.30;4.60;;;9.70;55.10;;;;;;5093623;28;20993;-68
2021/04/24 02:35:49;;;;;;;4.20;3.80;;;9.60;55.00;;;;;;5093952;28;20807;-69
2021/04/24 02:38:21;;;;;;;6.80;4.40;;;9.60;55.20;;;;;;5093860;28;20469;-68
2021/04/24 02:40:48;;;;;;;11.30;4.63;;;9.60;55.10;;;;;;5093921;28;20432;-68
2021/04/24 02:43:15;;;;;;;11.97;4.40;;;9.60;55.10;;;;;;5093501;28;20957;-68
2021/04/24 02:45:41;;;;;;;5.47;4.23;;;9.60;55.00;;;;;;5093813;28;20444;-68
2021/04/24 02:48:09;;;;;;;6.27;3.40;;;9.60;55.20;;;;;;5093661;28;20855;-68
2021/04/24 02:50:35;;;;;;;5.70;3.33;;;9.50;55.10;;;;;;5093450;28;20442;-68
2021/04/24 02:53:01;;;;;;;6.57;3.50;;;9.50;55.10;;;;;;5093974;28;20451;-68
2021/04/24 02:55:28;;;;;;;7.53;3.70;;;9.50;55.10;;;;;;5093615;28;20456;-68
2021/04/24 02:57:54;;;;;;;4.73;3.30;;;9.50;55.20;;;;;;5094047;28;20471;-68
2021/04/24 03:00:21;;;;;;;6.20;3.50;;;9.40;55.20;;;;;;5093639;28;20451;-68
2021/04/24 03:02:57;;;;;;;4.40;3.67;;;9.40;55.20;;;;;;5093600;28;20452;-68
2021/04/24 03:05:24;;;;;;;6.63;3.23;;;9.40;55.10;;;;;;5093373;28;20905;-68
2021/04/24 03:07:51;;;;;;;7.93;4.50;;;9.30;55.10;;;;;;5093180;28;20490;-68
2021/04/24 03:10:17;;;;;;;8.20;3.83;;;9.30;55.10;;;;;;5093519;28;20440;-68
2021/04/24 03:12:43;;;;;;;9.07;4.20;;;9.20;54.80;;;;;;5093541;28;20453;-68
2021/04/24 03:15:10;;;;;;;6.83;4.23;;;9.20;54.80;;;;;;5093312;28;20987;-68
2021/04/24 03:17:36;;;;;;;4.87;3.73;;;9.20;54.80;;;;;;5093156;28;20866;-68
2021/04/24 03:20:04;;;;;;;6.93;3.60;;;9.20;54.60;;;;;;5094580;28;20443;-68
2021/04/24 03:22:31;;;;;;;5.30;3.33;;;9.10;54.60;;;;;;5097657;28;20866;-68
2021/04/24 03:24:58;;;;;;;4.47;3.37;;;9.00;54.60;;;;;;5097521;28;20448;-68
2021/04/24 03:27:24;;;;;;;6.00;4.37;;;9.00;54.80;;;;;;5097068;28;21002;-69
2021/04/24 03:29:50;;;;;;;3.80;2.80;;;9.00;55.00;;;;;;5097459;28;20452;-68
2021/04/24 03:32:16;;;;;;;4.87;3.20;;;8.90;55.00;;;;;;5098423;28;20448;-68
2021/04/24 03:34:43;;;;;;;5.03;2.97;;;8.90;55.00;;;;;;5097497;28;20470;-68
2021/04/24 03:37:09;;;;;;;9.30;3.50;;;8.80;55.20;;;;;;5097246;28;20475;-68
2021/04/24 03:39:36;;;;;;;5.03;3.27;;;8.70;55.40;;;;;;5097277;28;20501;-68
2021/04/24 03:42:02;;;;;;;5.57;3.33;;;8.60;55.50;;;;;;5097203;28;20448;-68
2021/04/24 03:44:28;;;;;;;4.27;3.07;;;8.60;55.80;;;;;;5097141;28;20452;-68
2021/04/24 03:46:55;;;;;;;8.97;3.53;;;8.50;55.80;;;;;;5097087;28;20449;-68
2021/04/24 03:49:21;;;;;;;6.33;4.10;;;8.50;55.90;;;;;;5096716;28;20452;-68
2021/04/24 03:51:47;;;;;;;7.00;4.40;;;8.50;56.20;;;;;;5096713;28;20926;-68
2021/04/24 03:54:13;;;;;;;4.13;3.47;;;8.40;56.20;;;;;;5097254;28;20438;-68
2021/04/24 03:56:41;;;;;;;5.17;3.70;;;8.40;56.40;;;;;;5096920;28;20448;-68
2021/04/24 03:59:07;;;;;;;5.73;3.27;;;8.30;56.40;;;;;;5096898;28;20466;-68
2021/04/24 04:01:33;;;;;;;5.13;3.60;;;8.30;56.60;;;;;;5097317;28;20463;-68
2021/04/24 04:03:59;;;;;;;4.43;4.00;;;8.30;56.60;;;;;;5096517;28;21006;-68
2021/04/24 04:06:26;;;;;;;3.60;3.07;;;8.30;56.70;;;;;;5096747;28;20455;-68
2021/04/24 04:08:52;;;;;;;7.70;3.70;;;8.20;56.80;;;;;;5096579;28;20491;-68
2021/04/24 04:11:18;;;;;;;8.20;3.47;;;8.20;56.90;;;;;;5096704;28;20451;-68
2021/04/24 04:13:45;;;;;;;6.40;3.43;;;8.20;57.00;;;;;;5096610;28;20443;-68
2021/04/24 04:16:12;;;;;;;6.23;3.70;;;8.20;57.00;;;;;;5096658;28;20444;-68
2021/04/24 04:18:38;;;;;;;6.23;3.57;;;8.20;57.20;;;;;;5096469;28;20459;-68
2021/04/24 04:21:06;;;;;;;5.50;3.80;;;8.20;57.20;;;;;;5096515;28;20474;-68
2021/04/24 04:23:33;;;;;;;4.00;3.43;;;8.20;57.20;;;;;;5096451;28;20451;-68
2021/04/24 04:26:00;;;;;;;5.70;3.10;;;8.20;57.20;;;;;;5096441;28;20451;-68
2021/04/24 04:28:27;;;;;;;5.37;3.03;;;8.20;57.20;;;;;;5095888;28;21057;-68
2021/04/24 04:30:55;;;;;;;4.50;3.13;;;8.20;57.40;;;;;;5096278;28;20457;-68
2021/04/24 04:33:22;;;;;;;5.50;3.67;;;8.10;57.30;;;;;;5096237;28;20475;-68
2021/04/24 04:35:50;;;;;;;8.03;4.00;;;8.10;57.40;;;;;;5096209;28;20440;-68
2021/04/24 04:38:16;;;;;;;5.60;3.90;;;8.10;57.40;;;;;;5096098;28;20467;-68
2021/04/24 04:40:44;;;;;;;6.87;3.07;;;8.10;57.60;;;;;;5096427;28;20451;-68
2021/04/24 04:43:11;;;;;;;4.57;3.33;;;8.10;57.60;;;;;;5096133;28;20436;-68
2021/04/24 04:45:38;;;;;;;6.20;3.20;;;8.10;57.50;;;;;;5096278;28;20454;-68
2021/04/24 04:48:06;;;;;;;3.23;2.93;;;8.10;57.50;;;;;;5095908;28;20868;-68
2021/04/24 04:50:35;;;;;;;7.50;3.30;;;8.10;57.50;;;;;;5095971;28;20850;-68
2021/04/24 04:53:01;;;;;;;5.67;3.03;;;8.20;57.60;;;;;;5096611;28;20505;-68
2021/04/24 04:55:28;;;;;;;5.67;3.17;;;8.20;57.60;;;;;;5096792;28;20470;-68
2021/04/24 04:57:54;;;;;;;7.50;3.07;;;8.20;57.80;;;;;;5096944;28;20455;-68
2021/04/24 05:00:23;;;;;;;3.40;3.00;;;8.20;57.80;;;;;;5096666;28;20941;-68
2021/04/24 05:02:49;;;;;;;3.50;2.87;;;8.20;57.50;;;;;;5096660;28;20938;-68
2021/04/24 05:05:17;;;;;;;5.70;3.30;;;8.20;57.40;;;;;;5096075;28;20473;-68
2021/04/24 05:07:44;;;;;;;6.87;2.70;;;8.20;57.40;;;;;;5095550;28;20521;-68
2021/04/24 05:10:12;;;;;;;4.33;3.17;;;8.20;57.50;;;;;;5096262;28;20444;-68
2021/04/24 05:12:38;;;;;;;4.00;3.23;;;8.30;57.60;;;;;;5096229;28;20439;-68
2021/04/24 05:15:06;;;;;;;5.90;3.47;;;8.30;57.80;;;;;;5096451;28;20439;-68
2021/04/24 05:17:32;;;;;;;4.87;2.80;;;8.30;57.90;;;;;;5096074;28;20462;-68
2021/04/24 05:19:59;;;;;;;5.53;4.13;;;8.30;58.00;;;;;;5095553;28;20451;-68
2021/04/24 05:22:26;;;;;;;9.07;3.47;;;8.30;58.10;;;;;;5095476;28;20444;-68
2021/04/24 05:24:52;;;;;;;4.43;3.00;;;8.30;58.20;;;;;;5095266;28;20444;-68
2021/04/24 05:27:19;;;;;;;5.20;3.13;;;8.30;58.30;;;;;;5095221;28;20525;-69
2021/04/24 05:29:45;;;;;;;6.27;4.10;;;8.40;58.40;;;;;;5095141;28;20444;-68
2021/04/24 05:32:11;;;;;;;4.23;3.17;;;8.40;58.40;;;;;;5095131;28;20535;-68
2021/04/24 05:34:37;;;;;;;5.27;3.40;;;8.40;58.50;;;;;;5095069;28;20466;-68
2021/04/24 05:37:04;;;;;;;4.50;3.23;;;8.50;58.40;;;;;;5094867;28;20455;-69
2021/04/24 05:39:31;;;;;;;7.27;3.80;;;8.50;58.60;;;;;;5095033;28;20493;-68
2021/04/24 05:41:57;;;;;;;4.53;3.33;;;8.50;59.00;;;;;;5094901;28;20473;-68
2021/04/24 05:44:23;;;;;;;7.90;3.70;;;8.60;59.30;;;;;;5094369;28;20448;-68
2021/04/24 05:46:49;;;;;;;7.17;4.27;;;8.60;59.00;;;;;;5094637;28;21000;-68
2021/04/24 05:49:15;;;;;;;7.10;3.70;;;8.70;58.90;;;;;;5094780;28;20487;-68
2021/04/24 05:51:42;;;;;;;8.53;4.40;;;8.70;58.90;;;;;;5094762;28;20450;-68
2021/04/24 05:54:08;;;;;;;7.47;3.53;;;8.80;58.90;;;;;;5094381;28;20956;-68
2021/04/24 05:56:35;;;;;;;10.53;4.60;;;8.90;58.60;;;;;;5094533;28;20532;-68
2021/04/24 05:59:01;;;;;;;8.73;4.40;;;9.00;58.60;;;;;;5094515;28;20515;-68
2021/04/24 06:01:28;;;;;;;11.50;5.20;;;9.00;58.50;;;;;;5094520;28;20440;-68
2021/04/24 06:03:54;;;;;;;5.57;3.93;;;9.20;58.90;;;;;;5094502;28;20448;-68
2021/04/24 06:06:21;;;;;;;5.90;4.27;;;9.20;59.00;;;;;;5094402;28;20440;-69
2021/04/24 06:08:47;;;;;;;8.07;5.20;;;9.40;59.20;;;;;;5094290;28;20491;-67
2021/04/24 06:11:22;;;;;;;10.37;4.83;;;9.50;58.90;;;;;;5094421;28;20444;-68
2021/04/24 06:13:49;;;;;;;9.20;5.37;;;9.60;58.50;;;;;;5094346;28;20432;-69
2021/04/24 06:16:16;;;;;;;5.93;4.47;;;9.80;58.20;;;;;;5094271;28;20540;-68
2021/04/24 06:18:42;;;;;;;7.53;4.43;;;9.90;57.80;;;;;;5093818;28;20460;-69
2021/04/24 06:21:08;;;;;;;6.50;4.60;;;9.90;57.30;;;;;;5094314;28;20424;-69
2021/04/24 06:23:35;;;;;;;7.67;5.30;;;10.00;56.60;;;;;;5094166;28;20439;-69
2021/04/24 06:26:01;;;;;;;7.70;4.50;;;10.10;56.30;;;;;;5094037;28;20447;-68
2021/04/24 06:28:27;;;;;;;8.60;5.00;;;10.30;56.10;;;;;;5093642;28;20490;-68
2021/04/24 06:30:54;;;;;;;7.77;5.40;;;10.40;56.30;;;;;;5094054;28;20793;-68
2021/04/24 06:33:21;;;;;;;9.53;5.33;;;10.40;56.10;;;;;;5093995;28;20427;-69
2021/04/24 06:35:47;;;;;;;10.00;5.43;;;10.50;56.20;;;;;;5093913;28;20863;-69
2021/04/24 06:38:13;;;;;;;7.40;5.60;;;10.60;56.00;;;;;;5093927;28;20459;-69
2021/04/24 06:40:39;;;;;;;8.77;6.03;;;10.70;55.90;;;;;;5093831;28;20435;-69
2021/04/24 06:43:05;;;;;;;7.80;5.13;;;10.80;55.80;;;;;;5093832;28;20867;-69
2021/04/24 06:45:32;;;;;;;6.77;5.03;;;10.90;55.40;;;;;;5093786;28;20455;-69
2021/04/24 06:48:01;;;;;;;14.33;6.17;;;10.90;55.00;;;;;;5093580;28;20494;-69
2021/04/24 06:50:28;;;;;;;8.73;5.20;;;11.00;55.20;;;;;;5093712;28;20434;-69
2021/04/24 06:53:06;;;;;;;11.20;5.73;;;11.10;55.10;;;;;;5093477;28;20465;-68
2021/04/24 06:58:20;;;;;;;6.40;4.70;;;11.30;54.20;;;;;;5087488;28;20542;-68
2021/04/24 07:00:49;;;;;;;5.30;4.30;;;11.40;53.80;;;;;;5092789;28;21036;-67
2021/04/24 07:03:16;;;;;;;8.40;5.27;;;11.60;53.50;;;;;;5093280;28;20949;-67
2021/04/24 07:05:42;;;;;;;8.40;5.10;;;11.70;52.80;;;;;;5093311;28;20443;-67
2021/04/24 07:08:08;;;;;;;7.57;4.53;;;11.80;51.90;;;;;;5093330;28;20486;-67
2021/04/24 07:10:34;;;;;;;9.60;5.10;;;11.90;51.70;;;;;;5093518;28;20530;-68
2021/04/24 07:13:01;;;;;;;7.77;4.50;;;12.00;51.80;;;;;;5093493;28;20816;-71
2021/04/24 07:15:27;;;;;;;8.27;5.33;;;12.10;51.60;;;;;;5093202;28;20432;-68
2021/04/24 07:17:53;;;;;;;7.67;5.10;;;12.20;51.00;;;;;;5093427;28;20460;-68
2021/04/24 07:20:20;;;;;;;8.63;5.13;;;12.30;51.00;;;;;;5093538;28;20428;-67
2021/04/24 07:22:47;;;;;;;9.77;3.90;;;12.40;50.80;;;;;;5093151;28;20772;-67
2021/04/24 07:25:14;;;;;;;13.23;4.97;;;12.50;50.80;;;;;;5093352;28;20448;-68
2021/04/24 07:27:41;;;;;;;7.00;4.70;;;12.60;50.20;;;;;;5093248;28;20484;-68
2021/04/24 07:30:09;;;;;;;7.07;5.10;;;12.70;50.20;;;;;;5093024;28;20454;-67
2021/04/24 07:32:35;;;;;;;7.53;4.27;;;12.80;50.20;;;;;;5093311;28;20450;-69
2021/04/24 07:35:02;;;;;;;8.67;4.93;;;13.10;49.90;;;;;;5093061;28;20439;-68
2021/04/24 07:37:30;;;;;;;9.73;5.30;;;13.20;49.30;;;;;;5093470;28;20512;-68
2021/04/24 07:39:56;;;;;;;9.13;5.50;;;13.30;48.40;;;;;;5092995;28;20440;-68
2021/04/24 07:42:22;;;;;;;7.53;4.60;;;13.50;47.90;;;;;;5093289;28;20440;-68
2021/04/24 07:44:49;;;;;;;8.53;6.83;;;13.60;48.40;;;;;;5093184;28;20447;-68
2021/04/24 07:47:15;;;;;;;5.90;4.60;;;13.70;48.30;;;;;;5093018;28;20456;-68
2021/04/24 07:49:41;;;;;;;8.40;4.83;;;13.70;48.00;;;;;;5093278;28;20428;-68
2021/04/24 07:52:09;;;;;;;6.50;5.47;;;13.90;47.40;;;;;;5093229;28;20432;-68
2021/04/24 07:54:41;;;;;;;6.80;5.20;;;14.00;47.20;;;;;;5093275;28;20432;-69
2021/04/24 07:57:07;;;;;;;6.50;5.27;;;14.20;47.00;;;;;;5092872;28;20494;-69
2021/04/24 07:59:34;;;;;;;6.53;5.00;;;14.40;46.50;;;;;;5093035;28;20452;-69
2021/04/24 08:02:00;;;;;;;14.40;5.40;;;14.50;45.50;;;;;;5093113;28;20823;-69
2021/04/24 08:04:26;;;;;;;9.50;5.43;;;14.70;45.10;;;;;;5093020;28;20439;-69
2021/04/24 08:06:52;;;;;;;8.17;5.07;;;14.90;44.30;;;;;;5095045;28;20428;-69
2021/04/24 08:09:18;;;;;;;7.17;4.90;;;15.10;44.20;;;;;;5096546;28;20487;-69
2021/04/24 08:11:46;;;;;;;8.73;5.43;;;15.30;43.80;;;;;;5096650;28;20460;-69
2021/04/24 08:14:12;;;;;;;7.80;4.80;;;15.40;43.30;;;;;;5096664;28;20424;-68
2021/04/24 08:16:38;;;;;;;7.90;3.80;;;15.60;43.00;;;;;;5097261;28;20444;-68
2021/04/24 08:19:04;;;;;;;4.63;4.13;;;15.70;42.50;;;;;;5096280;28;20973;-69
2021/04/24 08:21:31;;;;;;;4.37;3.60;;;15.80;41.50;;;;;;5096518;28;20523;-69
2021/04/24 08:24:00;;;;;;;5.67;4.33;;;15.80;41.50;;;;;;5096790;28;20432;-69
2021/04/24 08:26:28;;;;;;;6.30;4.47;;;15.90;41.00;;;;;;5096553;28;20458;-69
2021/04/24 08:28:55;;;;;;;7.40;4.60;;;15.90;40.90;;;;;;5096458;28;20533;-69
2021/04/24 08:31:21;;;;;;;8.00;4.87;;;15.90;40.70;;;;;;5096343;28;20428;-68
2021/04/24 08:33:47;;;;;;;7.53;4.53;;;16.00;41.20;;;;;;5096282;28;20439;-68
2021/04/24 08:36:14;;;;;;;6.70;4.40;;;16.10;40.60;;;;;;5096209;28;20505;-68
2021/04/24 08:38:41;;;;;;;6.57;3.97;;;16.20;40.80;;;;;;5096010;28;20468;-66
2021/04/24 08:41:08;;;;;;;14.80;4.40;;;16.30;41.20;;;;;;5095997;28;20451;-66
2021/04/24 08:43:37;;;;;;;7.33;4.93;;;16.40;40.60;;;;;;5096069;28;20428;-66
2021/04/24 08:46:05;;;;;;;9.90;4.70;;;16.50;39.40;;;;;;5095990;28;20945;-66
2021/04/24 08:48:32;;;;;;;5.70;4.17;;;16.60;39.50;;;;;;5095830;28;20480;-66
2021/04/24 08:50:58;;;;;;;6.77;4.13;;;16.80;39.40;;;;;;5095623;28;20952;-66
2021/04/24 08:53:24;;;;;;;8.30;4.57;;;16.90;39.40;;;;;;5095886;28;20427;-66
2021/04/24 08:55:50;;;;;;;5.63;4.03;;;17.10;39.20;;;;;;5095053;28;20458;-66
2021/04/24 08:58:17;;;;;;;6.03;4.00;;;17.30;39.10;;;;;;5095326;28;20509;-66
2021/04/24 09:00:46;;;;;;;5.53;5.00;;;17.60;38.50;;;;;;5095590;28;20444;-66
2021/04/24 09:03:16;;;;;;;6.63;4.10;;;17.70;37.80;;;;;;5095404;28;20466;-66
2021/04/24 09:05:43;;;;;;;4.73;4.13;;;17.90;38.10;;;;;;5095898;28;20432;-66
2021/04/24 09:08:11;;;;;;;5.60;3.67;;;18.10;38.00;;;;;;5095118;28;20993;-66
2021/04/24 09:10:42;;;;;;;4.80;3.93;;;18.20;37.50;;;;;;5095732;28;20440;-66
2021/04/24 09:13:09;;;;;;;5.10;4.53;;;18.30;37.40;;;;;;5095466;28;20432;-66
2021/04/24 09:15:35;;;;;;;5.80;4.53;;;18.40;37.30;;;;;;5095408;28;20432;-66
2021/04/24 09:18:04;;;;;;;7.57;4.50;;;18.50;36.80;;;;;;5094535;28;20464;-68
2021/04/24 09:20:33;;;;;;;6.50;4.60;;;18.70;36.80;;;;;;5094986;28;20440;-66
2021/04/24 09:23:03;;;;;;;6.23;4.87;;;18.90;37.00;;;;;;5095268;28;20436;-66
2021/04/24 09:25:42;;;;;;;5.03;4.53;;;19.00;36.40;;;;;;5095080;28;20420;-67
2021/04/24 09:28:13;;;;;;;6.00;5.47;;;19.20;36.20;;;;;;5095085;28;20483;-66
2021/04/24 09:30:41;;;;;;;4.90;4.10;;;19.40;35.80;;;;;;5095082;28;20432;-66
2021/04/24 09:33:10;;;;;;;4.90;4.37;;;19.60;35.50;;;;;;5094713;28;20883;-66
2021/04/24 09:35:44;;;;;;;5.37;4.13;;;19.70;34.80;;;;;;5095024;28;20463;-66
2021/04/24 09:38:15;;;;;;;5.87;5.23;;;19.90;34.90;;;;;;5094642;28;20961;-66
2021/04/24 09:40:42;;;;;;;4.67;4.27;;;20.00;34.50;;;;;;5094985;28;20435;-68
2021/04/24 09:43:08;;;;;;;5.33;4.83;;;20.20;33.70;;;;;;5094927;28;20430;-68
2021/04/24 09:45:39;;;;;;;5.37;4.77;;;20.40;33.60;;;;;;5094841;28;20444;-68
2021/04/24 09:48:18;;;;;;;4.23;3.83;;;20.50;33.40;;;;;;5094722;28;20484;-68
2021/04/24 09:50:45;;;;;;;4.90;4.00;;;20.70;33.70;;;;;;5094481;28;20477;-68
2021/04/24 09:53:19;;;;;;;5.87;3.83;;;20.90;33.20;;;;;;5094421;28;20471;-68
2021/04/24 09:55:46;;;;;;;3.90;3.60;;;21.30;32.90;;;;;;5094232;28;20458;-67
2021/04/24 09:58:29;;;;;;;4.30;3.90;;;21.60;31.70;;;;;;5094540;28;20464;-67
2021/04/24 10:00:57;;;;;;;6.00;4.70;;;21.90;31.40;;;;;;5094618;28;20436;-67
2021/04/24 10:03:37;;;;;;;7.30;4.27;;;22.20;30.60;;;;;;5094611;28;20489;-67
2021/04/24 10:06:27;;;;;;;4.20;3.80;;;22.50;30.20;;;;;;5094196;28;20937;-67
2021/04/24 10:09:15;;;;;;;4.10;3.60;;;22.70;30.00;;;;;;5094024;28;20487;-68
2021/04/24 10:11:44;;;;;;;5.43;4.47;;;23.00;29.40;;;;;;5094037;28;20954;-68
2021/04/24 10:14:11;;;;;;;4.93;3.93;;;23.00;28.80;;;;;;5093960;28;20440;-68
2021/04/24 10:16:42;;;;;;;4.03;3.33;;;23.20;28.90;;;;;;5094295;28;20451;-68
2021/04/24 10:19:10;;;;;;;3.73;3.43;;;23.40;28.60;;;;;;5094249;28;20467;-68
2021/04/24 10:21:37;;;;;;;6.50;4.07;;;23.60;28.30;;;;;;5093882;28;20448;-68
2021/04/24 10:24:05;;;;;;;4.70;3.67;;;23.90;28.20;;;;;;5094156;28;20452;-68
2021/04/24 10:26:32;;;;;;;5.20;3.60;;;24.10;27.70;;;;;;5093804;28;20454;-68
2021/04/24 10:29:00;;;;;;;3.70;3.17;;;24.20;27.40;;;;;;5093818;28;20479;-68
2021/04/24 10:31:27;;;;;;;5.80;3.70;;;24.60;26.80;;;;;;5094023;28;20448;-68
2021/04/24 10:33:56;;;;;;;4.93;4.33;;;24.80;26.60;;;;;;5093674;28;20443;-69
2021/04/24 10:36:23;;;;;;;3.50;3.20;;;25.00;26.40;;;;;;5093959;28;20451;-69
2021/04/24 10:38:51;;;;;;;4.63;3.67;;;25.20;25.60;;;;;;5093688;28;20468;-68
2021/04/24 10:41:31;;;;;;;2.83;2.63;;;25.40;25.60;;;;;;5093907;28;20802;-68
2021/04/24 10:44:00;;;;;;;4.30;3.37;;;25.60;25.70;;;;;;5093516;28;20423;-68
2021/04/24 10:46:29;;;;;;;6.80;3.73;;;25.80;25.70;;;;;;5093888;28;20458;-68
2021/04/24 10:49:18;;;;;;;3.47;3.17;;;26.10;24.50;;;;;;5093597;28;20483;-68
2021/04/24 10:52:04;;;;;;;3.80;3.50;;;26.50;24.40;;;;;;5093965;28;20492;-68
2021/04/24 10:54:35;;;;;;;4.00;3.70;;;26.90;24.00;;;;;;5093591;28;20437;-68
2021/04/24 10:57:03;;;;;;;4.40;4.00;;;27.50;23.70;;;;;;5093500;28;20949;-68
2021/04/24 10:59:31;;;;;;;4.83;4.30;;;28.10;23.80;;;;;;5093644;28;20444;-70
2021/04/24 11:02:09;;;;;;;4.77;4.33;;;28.70;22.60;;;;;;5093497;28;20497;-71
2021/04/24 11:04:47;;;;;;;5.20;4.70;;;29.50;21.50;;;;;;5093567;28;20444;-71
2021/04/24 11:07:31;;;;;;;5.70;4.73;;;30.10;21.10;;;;;;5093489;28;20439;-71
2021/04/24 11:10:29;;;;;;;4.70;4.30;;;30.20;20.70;;;;;;5093778;28;20420;-71
2021/04/24 11:12:58;;;;;;;5.00;4.50;;;29.80;20.80;;;;;;5093520;28;20791;-71
2021/04/24 11:15:29;;;;;;;5.23;3.63;;;29.90;21.10;;;;;;5093530;28;20443;-71
2021/04/24 11:17:57;;;;;;;4.10;3.70;;;30.00;20.50;;;;;;5093148;28;20460;-71
2021/04/24 11:20:48;;;;;;;6.60;4.50;;;30.20;20.90;;;;;;5093396;28;20428;-71
2021/04/24 11:23:51;;;;;;;6.33;4.37;;;30.70;20.30;;;;;;5093464;28;20442;-70
2021/04/24 11:26:49;;;;;;;5.60;4.53;;;31.00;20.10;;;;;;5093733;28;20427;-71
2021/04/24 11:29:21;;;;;;;4.70;4.20;;;31.20;20.00;;;;;;5093279;28;20528;-71
2021/04/24 11:32:02;;;;;;;4.77;3.70;;;31.30;19.40;;;;;;5093712;28;20458;-71
2021/04/24 11:34:31;;;;;;;4.40;4.00;;;31.40;19.20;;;;;;5093264;28;20546;-71
2021/04/24 11:37:24;;;;;;;6.17;4.27;;;31.30;19.30;;;;;;5093246;28;20964;-71
2021/04/24 11:40:20;;;;;;;4.13;3.63;;;31.30;19.60;;;;;;5092894;28;20439;-72
2021/04/24 11:43:06;;;;;;;3.50;3.20;;;31.30;19.40;;;;;;5096806;28;20936;-71
2021/04/24 11:46:01;;;;;;;4.07;3.53;;;31.50;19.40;;;;;;5097186;28;20510;-71
2021/04/24 11:49:02;;;;;;;3.50;3.20;;;31.70;19.10;;;;;;5097677;28;20482;-71
2021/04/24 11:51:37;;;;;;;4.50;4.10;;;32.00;19.30;;;;;;5097131;28;20423;-72
2021/04/24 11:54:04;;;;;;;4.70;3.83;;;32.40;18.60;;;;;;5097101;28;20426;-72
2021/04/24 11:56:30;;;;;;;4.20;3.80;;;33.00;18.40;;;;;;5096894;28;20462;-72
2021/04/24 11:58:58;;;;;;;4.60;4.17;;;33.60;18.10;;;;;;5096855;28;20463;-72
2021/04/24 12:01:25;;;;;;;4.40;3.70;;;34.10;17.00;;;;;;5096949;28;20439;-72
2021/04/24 12:03:52;;;;;;;5.10;4.43;;;34.40;17.00;;;;;;5096851;28;20447;-72
2021/04/24 12:06:39;;;;;;;4.93;4.00;;;34.70;16.60;;;;;;5097057;28;20439;-71
2021/04/24 12:09:10;;;;;;;4.33;3.93;;;34.90;15.90;;;;;;5096303;28;20482;-71
2021/04/24 12:11:36;;;;;;;4.63;3.50;;;35.00;16.30;;;;;;5096478;28;20936;-71
2021/04/24 12:14:04;;;;;;;4.20;3.60;;;35.00;16.00;;;;;;5096730;28;20450;-71
2021/04/24 12:16:44;;;;;;;4.13;3.73;;;35.00;15.90;;;;;;5096449;28;20908;-71
2021/04/24 12:19:28;;;;;;;3.80;3.30;;;35.30;15.90;;;;;;5096301;28;20972;-71
2021/04/24 12:22:16;;;;;;;4.83;3.23;;;35.60;15.30;;;;;;5096591;28;20431;-71
2021/04/24 12:25:07;;;;;;;5.60;3.97;;;35.60;15.50;;;;;;5091890;28;20974;-71
2021/04/24 12:27:37;;;;;;;5.00;3.50;;;35.50;15.20;;;;;;5096549;28;20447;-71
2021/04/24 12:30:08;;;;;;;5.50;3.30;;;35.50;15.70;;;;;;5096676;28;20443;-71
2021/04/24 12:32:37;;;;;;;2.80;2.60;;;35.70;15.40;;;;;;5096368;28;20439;-71
2021/04/24 12:35:06;;;;;;;3.43;2.27;;;36.00;15.10;;;;;;5096239;28;20443;-72
2021/04/24 12:37:33;;;;;;;4.60;3.50;;;36.10;15.00;;;;;;5096183;28;20243;-72
2021/04/24 12:40:05;;;;;;;7.10;3.80;;;35.90;14.70;;;;;;5096182;28;20454;-72
2021/04/24 12:42:32;;;;;;;5.43;3.40;;;36.00;15.40;;;;;;5096400;28;20423;-72
2021/04/24 12:44:58;;;;;;;3.70;3.07;;;36.30;15.20;;;;;;5096058;28;20236;-72
2021/04/24 12:47:25;;;;;;;4.77;3.40;;;36.80;14.60;;;;;;5096044;28;20273;-72
2021/04/24 12:49:52;;;;;;;3.07;2.77;;;37.00;14.70;;;;;;5095882;28;20483;-72
2021/04/24 12:52:18;;;;;;;3.40;2.90;;;37.20;14.30;;;;;;5094807;28;20202;-72
2021/04/24 12:55:04;;;;;;;4.17;2.90;;;37.20;14.40;;;;;;5096342;28;20190;-72
2021/04/24 12:57:30;;;;;;;3.50;3.00;;;37.50;14.30;;;;;;5095819;28;20228;-72
2021/04/24 12:59:59;;;;;;;3.80;3.23;;;37.80;13.60;;;;;;5096629;28;20377;-72